Estación de La Cruz

Ultimos registro cada 15 minutos 58
Estación Fecha / Hora Temperatura Humedad Lluvia Velocidad Dirección Radiación Presion
58 La Cruz 07-05-2026 14:15 20,6 54 0 0 195 575,6 1003,6
57 La Cruz 07-05-2026 14:00 21,2 52,4 0 0 222 604,4 1003,8
56 La Cruz 07-05-2026 13:45 20,3 55,7 0 0 209 619,4 1004,2
55 La Cruz 07-05-2026 13:30 19,8 56,3 0 0 244 630,6 1004,7
54 La Cruz 07-05-2026 13:15 19,6 56,5 0 0 201 636,9 1005
53 La Cruz 07-05-2026 13:00 19,5 58,7 0 0 215 641,9 1005,2
52 La Cruz 07-05-2026 12:45 20 57,6 0 0 250 646,9 1005,3
51 La Cruz 07-05-2026 12:30 18,9 61 0 0 216 639,4 1005,5
50 La Cruz 07-05-2026 12:15 19,1 62,4 0 0 194 640,6 1005,8
49 La Cruz 07-05-2026 12:00 18,5 61,3 0 0 194 626,9 1005,7
48 La Cruz 07-05-2026 11:45 19 60,4 0 0 205 623,1 1005,9
47 La Cruz 07-05-2026 11:30 19,6 60,2 0 0 199 604,4 1006
46 La Cruz 07-05-2026 11:15 19 59 0 0 171 586,9 1005,9
45 La Cruz 07-05-2026 11:00 17,5 64,4 0 0 174 556,9 1006,2
44 La Cruz 07-05-2026 10:45 17,2 66,2 0 0 195 530,6 1006,4
43 La Cruz 07-05-2026 10:30 16 68,5 0 0 191 489,4 1006,8
42 La Cruz 07-05-2026 10:15 16,9 69,4 0 0 184 303,1 1006,7
41 La Cruz 07-05-2026 10:00 15,7 72,7 0 0 184 429,4 1006,9
40 La Cruz 07-05-2026 09:45 14,6 78,2 0 0 185 94,4 1006,8
39 La Cruz 07-05-2026 09:30 13,8 78,8 0 0 195 124,4 1006,7
38 La Cruz 07-05-2026 09:15 13,1 84,1 0 0 195 114,4 1006,7
37 La Cruz 07-05-2026 09:00 11,4 89,6 0 0 195 96,9 1006,7
36 La Cruz 07-05-2026 08:45 10,6 92 0 0 195 73,1 1006,3
35 La Cruz 07-05-2026 08:30 10,2 92,8 0 0 195 43,1 1006,2
34 La Cruz 07-05-2026 08:15 9,4 92,5 0 0 195 33,1 1006,1
33 La Cruz 07-05-2026 08:00 8,9 91,9 0 0 195 29,4 1006
32 La Cruz 07-05-2026 07:45 9,2 91,6 0 0 195 11,9 1006
31 La Cruz 07-05-2026 07:30 9,7 91,2 0 0 195 3,1 1005,8
30 La Cruz 07-05-2026 07:15 10,1 90,8 0 0 195 0,6 1005,9
29 La Cruz 07-05-2026 07:00 10,6 90,7 0 0 195 0,6 1005,7
28 La Cruz 07-05-2026 06:45 10,8 90,3 0 0 195 0,6 1005,6
27 La Cruz 07-05-2026 06:30 10,8 89,9 0 0 195 0,6 1005,5
26 La Cruz 07-05-2026 06:15 11 89,8 0 0 195 0,6 1005,4
25 La Cruz 07-05-2026 06:00 10,9 89,7 0 0 195 0,6 1005,2
24 La Cruz 07-05-2026 05:45 10,9 89,9 0 0 195 0,6 1005,2
23 La Cruz 07-05-2026 05:30 10,8 90,5 0 0 195 0,6 1005,2
22 La Cruz 07-05-2026 05:15 10,7 90,2 0 0 195 0,6 1004,9
21 La Cruz 07-05-2026 05:00 10,8 89,8 0 0 195 0,6 1004,7
20 La Cruz 07-05-2026 04:45 11,1 89,6 0 0 195 0,6 1004,7
19 La Cruz 07-05-2026 04:30 11,1 89,4 0 0 195 0,6 1004,5
18 La Cruz 07-05-2026 04:15 11,1 89,2 0 0 195 0,6 1004,5
17 La Cruz 07-05-2026 04:00 11,1 88,8 0 0 195 0,6 1004,6
16 La Cruz 07-05-2026 03:45 11,3 88,3 0 0 195 0,6 1004,5
15 La Cruz 07-05-2026 03:30 11,3 87,5 0 0 195 0,6 1004,5
14 La Cruz 07-05-2026 03:15 11,4 86,3 0 0 195 0,6 1004,4
13 La Cruz 07-05-2026 03:00 11,5 84,4 0 0 212 0,6 1004,7
12 La Cruz 07-05-2026 02:45 11,5 84,1 0 0 202 0,6 1004,7
11 La Cruz 07-05-2026 02:30 11,5 84,2 0 0 205 0,6 1004,6
10 La Cruz 07-05-2026 02:15 11,3 85,1 0 0 226 0,6 1004,6
9 La Cruz 07-05-2026 02:00 11,1 88,7 0 0 244 0,6 1004,5
8 La Cruz 07-05-2026 01:45 11 89 0 0 244 0,6 1004,4
7 La Cruz 07-05-2026 01:30 11,6 87,7 0 0 244 0,6 1004
6 La Cruz 07-05-2026 01:15 11,6 87 0 0 244 0,6 1004
5 La Cruz 07-05-2026 01:00 11,8 87,6 0 0 213 0,6 1004
4 La Cruz 07-05-2026 00:45 11,8 88,9 0 0 211 0,6 1004,2
3 La Cruz 07-05-2026 00:30 11,7 90,5 0 0 240 0,6 1004,2
2 La Cruz 07-05-2026 00:15 11,7 92,7 0 0 219 0,6 1004
1 La Cruz 07-05-2026 00:00 12 93,8 0 0 205 0,6 1003,9